createdAt,value
2022-08-02T00:00:12.067Z,99968.78
2022-08-02T00:02:38.865Z,99970.28
2022-08-02T00:05:05.941Z,99969.19
2022-08-02T00:07:36.341Z,99958.59
2022-08-02T00:10:07.127Z,99971.13
2022-08-02T00:12:33.818Z,99970.56
2022-08-02T00:15:00.437Z,99967.47
2022-08-02T00:17:27.268Z,99959.66
2022-08-02T00:19:53.946Z,99961.72
2022-08-02T00:22:20.561Z,99960.66
2022-08-02T00:24:47.170Z,99961.09
2022-08-02T00:27:13.830Z,99952.72
2022-08-02T00:29:42.449Z,99957.66
2022-08-02T00:32:19.027Z,99958.34
2022-08-02T00:34:45.629Z,99964.66
2022-08-02T00:37:12.232Z,99960.91
2022-08-02T00:39:39.013Z,99960.91
2022-08-02T00:42:05.848Z,99964.56
2022-08-02T00:44:32.503Z,99965.13
2022-08-02T00:46:59.156Z,99968.00
2022-08-02T00:49:25.890Z,99970.81
2022-08-02T00:51:53.217Z,99972.28
2022-08-02T00:54:20.820Z,99969.81
2022-08-02T00:56:49.487Z,99974.09
2022-08-02T00:59:18.693Z,99976.25
2022-08-02T01:01:56.914Z,99972.81
2022-08-02T01:04:30.087Z,99979.44
2022-08-02T01:07:01.169Z,99985.00
2022-08-02T01:09:27.949Z,99982.63
2022-08-02T01:11:54.812Z,99984.34
2022-08-02T01:14:22.335Z,99980.59
2022-08-02T01:16:58.138Z,99976.56
2022-08-02T01:19:43.335Z,99985.22
2022-08-02T01:22:16.860Z,99979.97
2022-08-02T01:25:08.146Z,99984.34
2022-08-02T01:28:00.369Z,99985.66
2022-08-02T01:30:29.974Z,99985.22
2022-08-02T01:33:01.912Z,99987.13
2022-08-02T01:35:47.234Z,99987.88
2022-08-02T01:38:26.356Z,99984.56
2022-08-02T01:40:55.965Z,99982.06
2022-08-02T01:43:24.556Z,99974.97
2022-08-02T01:45:53.330Z,99981.59
2022-08-02T01:48:21.904Z,99978.59
2022-08-02T01:50:50.073Z,99980.03
2022-08-02T01:53:20.557Z,99983.00
2022-08-02T01:55:58.439Z,99983.72
2022-08-02T01:58:29.643Z,99979.47
2022-08-02T02:00:58.064Z,99983.59
2022-08-02T02:03:27.798Z,99993.88
2022-08-02T02:05:57.257Z,99997.84
2022-08-02T02:08:28.245Z,99999.88
2022-08-02T02:10:56.893Z,99997.13
2022-08-02T02:13:33.297Z,100002.00
2022-08-02T02:16:04.503Z,99998.66
2022-08-02T02:18:34.635Z,100007.50
2022-08-02T02:21:01.318Z,100004.94
2022-08-02T02:23:28.821Z,100009.84
2022-08-02T02:26:04.414Z,100009.56
2022-08-02T02:28:32.895Z,100018.19
2022-08-02T02:31:07.504Z,100019.72
2022-08-02T02:33:39.966Z,100017.75
2022-08-02T02:36:08.881Z,100025.94
2022-08-02T02:38:36.808Z,100020.72
2022-08-02T02:41:05.575Z,100029.97
2022-08-02T02:43:34.475Z,100029.50
2022-08-02T02:46:04.849Z,100022.88
2022-08-02T02:48:32.114Z,100032.72
2022-08-02T02:51:00.742Z,100035.97
2022-08-02T02:53:29.795Z,100044.09
2022-08-02T02:56:20.489Z,100044.47
2022-08-02T02:58:48.541Z,100052.38
2022-08-02T03:01:16.147Z,100041.72
2022-08-02T03:03:44.513Z,100039.13
2022-08-02T03:06:15.034Z,100034.56
2022-08-02T03:08:42.572Z,100029.31
2022-08-02T03:11:10.173Z,100024.28
2022-08-02T03:13:38.013Z,100015.91
2022-08-02T03:16:05.408Z,100011.53
2022-08-02T03:18:40.785Z,100009.44
2022-08-02T03:21:12.918Z,99998.50
2022-08-02T03:23:42.260Z,100009.53
2022-08-02T03:26:10.048Z,100004.59
2022-08-02T03:28:36.780Z,100000.22
2022-08-02T03:31:03.843Z,100005.09
2022-08-02T03:33:30.724Z,100014.69
2022-08-02T03:36:04.316Z,100017.09
2022-08-02T03:38:34.303Z,100021.06
2022-08-02T03:41:02.658Z,100018.88
2022-08-02T03:43:30.891Z,100024.56
2022-08-02T03:45:58.913Z,100025.31
2022-08-02T03:48:34.469Z,100025.06
2022-08-02T03:51:02.835Z,100035.53
2022-08-02T03:53:30.550Z,100046.09
2022-08-02T03:55:58.033Z,100033.91
2022-08-02T03:58:25.469Z,100034.28
2022-08-02T04:00:54.027Z,100042.22
2022-08-02T04:03:20.812Z,100037.91
2022-08-02T04:06:03.774Z,100034.19
2022-08-02T04:08:37.560Z,100046.19
2022-08-02T04:11:05.153Z,100050.19
2022-08-02T04:13:35.920Z,100050.66
2022-08-02T04:16:07.181Z,100054.75
2022-08-02T04:18:40.574Z,100060.66
2022-08-02T04:21:12.602Z,100060.06
2022-08-02T04:23:40.934Z,100060.09
2022-08-02T04:26:08.748Z,100073.13
2022-08-02T04:28:37.996Z,100074.25
2022-08-02T04:31:06.488Z,100076.75
2022-08-02T04:33:34.965Z,100071.69
2022-08-02T04:36:02.413Z,100074.16
2022-08-02T04:38:29.155Z,100082.53
2022-08-02T04:40:56.149Z,100082.44
2022-08-02T04:43:23.866Z,100080.53
2022-08-02T04:45:53.634Z,100081.13
2022-08-02T04:48:21.872Z,100080.00
2022-08-02T04:50:48.565Z,100080.25
2022-08-02T04:53:15.257Z,100076.44
2022-08-02T04:55:42.031Z,100069.78
2022-08-02T04:58:36.992Z,100074.63
2022-08-02T05:00:55.495Z,100080.91
2022-08-02T05:03:22.150Z,100083.31
2022-08-02T05:05:48.757Z,100085.59
2022-08-02T05:08:15.379Z,100082.63
2022-08-02T05:10:42.081Z,100083.41
2022-08-02T05:13:08.696Z,100084.84
2022-08-02T05:15:35.375Z,100084.84
2022-08-02T05:18:02.058Z,100084.38
2022-08-02T05:20:28.729Z,100093.69
2022-08-02T05:22:55.381Z,100091.59
2022-08-02T05:25:22.022Z,100097.50
2022-08-02T05:27:48.887Z,100100.34
2022-08-02T05:30:15.736Z,100101.13
2022-08-02T05:32:49.491Z,100113.22
2022-08-02T05:35:21.094Z,100104.66
2022-08-02T05:37:48.962Z,100105.13
2022-08-02T05:40:16.023Z,100107.22
2022-08-02T05:42:43.677Z,100104.72
2022-08-02T05:45:10.760Z,100118.16
2022-08-02T05:47:38.402Z,100123.75
2022-08-02T05:50:07.718Z,100130.47
2022-08-02T05:53:01.587Z,100124.72
2022-08-02T05:55:34.462Z,100139.38
2022-08-02T05:58:16.140Z,100141.47
2022-08-02T06:00:45.469Z,100148.50
2022-08-02T06:03:25.181Z,100138.38
2022-08-02T06:06:00.476Z,100138.97
2022-08-02T06:08:35.464Z,100138.97
2022-08-02T06:11:02.634Z,100147.69
2022-08-02T06:13:29.528Z,100139.09
2022-08-02T06:15:57.778Z,100141.84
2022-08-02T06:18:28.882Z,100134.44
2022-08-02T06:22:33.326Z,100137.47
2022-08-02T06:23:57.692Z,100143.38
2022-08-02T06:26:27.621Z,100145.59
2022-08-02T06:28:57.381Z,100144.34
2022-08-02T06:31:24.511Z,100139.38
2022-08-02T06:33:51.129Z,100140.00
2022-08-02T06:36:43.499Z,100141.59
2022-08-02T06:39:20.936Z,100147.06
2022-08-02T06:41:50.038Z,100150.09
2022-08-02T06:44:45.666Z,100149.00
2022-08-02T06:47:11.648Z,100146.47
2022-08-02T06:49:52.979Z,100147.22
2022-08-02T06:52:30.649Z,100142.97
2022-08-02T06:55:01.726Z,100142.34
2022-08-02T06:57:29.875Z,100151.72
2022-08-02T06:59:57.548Z,100146.69
2022-08-02T07:02:24.444Z,100143.34
2022-08-02T07:04:51.112Z,100135.78
2022-08-02T07:07:17.931Z,100138.94
2022-08-02T07:09:56.696Z,100144.63
2022-08-02T07:12:29.128Z,100145.69
2022-08-02T07:14:55.880Z,100138.97
2022-08-02T07:17:22.497Z,100142.78
2022-08-02T07:19:49.210Z,100150.56
2022-08-02T07:22:16.192Z,100146.94
2022-08-02T07:24:43.122Z,100150.09
2022-08-02T07:27:11.686Z,100145.41
2022-08-02T07:29:46.039Z,100140.34
2022-08-02T07:32:15.509Z,100140.19
2022-08-02T07:34:42.971Z,100143.34
2022-08-02T07:37:20.577Z,100145.19
2022-08-02T07:40:04.683Z,100142.91
2022-08-02T07:42:33.222Z,100138.78
2022-08-02T07:44:59.914Z,100136.31
2022-08-02T07:47:26.625Z,100140.38
2022-08-02T07:49:53.330Z,100141.03
2022-08-02T07:52:20.122Z,100131.94
2022-08-02T07:54:46.824Z,100135.59
2022-08-02T07:57:13.775Z,100143.88
2022-08-02T07:59:40.410Z,100142.56
2022-08-02T08:02:07.177Z,100133.97
2022-08-02T08:04:33.877Z,100140.31
2022-08-02T08:07:00.497Z,100135.09
2022-08-02T08:09:27.273Z,100140.84
2022-08-02T08:11:53.953Z,100141.78
2022-08-02T08:14:20.592Z,100138.09
2022-08-02T08:16:47.255Z,100145.19
2022-08-02T08:19:13.872Z,100151.59
2022-08-02T08:21:40.493Z,100144.53
2022-08-02T08:24:07.415Z,100149.97
2022-08-02T08:26:34.041Z,100145.81
2022-08-02T08:29:00.717Z,100150.38
2022-08-02T08:31:27.472Z,100142.41
2022-08-02T08:33:54.139Z,100146.09
2022-08-02T08:36:20.766Z,100141.56
2022-08-02T08:38:47.532Z,100149.78
2022-08-02T08:41:16.541Z,100151.50
2022-08-02T08:43:43.797Z,100160.00
2022-08-02T08:46:15.245Z,100154.34
2022-08-02T08:48:47.028Z,100154.59
2022-08-02T08:51:18.003Z,100156.31
2022-08-02T08:53:48.929Z,100159.44
2022-08-02T08:56:16.837Z,100160.31
2022-08-02T08:58:45.090Z,100151.63
2022-08-02T09:01:13.586Z,100145.56
2022-08-02T09:03:40.370Z,100157.72
2022-08-02T09:06:07.265Z,100150.09
2022-08-02T09:08:33.899Z,100147.81
2022-08-02T09:11:00.644Z,100150.94
2022-08-02T09:13:38.473Z,100152.34
2022-08-02T09:16:14.209Z,100151.63
2022-08-02T09:18:46.671Z,100149.19
2022-08-02T09:21:16.556Z,100155.09
2022-08-02T09:23:48.462Z,100153.94
2022-08-02T09:26:20.608Z,100154.47
2022-08-02T09:28:52.576Z,100149.69
2022-08-02T09:31:21.914Z,100162.88
2022-08-02T09:33:57.197Z,100160.31
2022-08-02T09:36:25.084Z,100156.19
2022-08-02T09:39:00.958Z,100155.41
2022-08-02T09:41:29.570Z,100155.56
2022-08-02T09:44:05.413Z,100152.56
2022-08-02T09:46:36.264Z,100151.88
2022-08-02T09:49:11.491Z,100151.28
2022-08-02T09:51:50.434Z,100141.88
2022-08-02T09:54:18.578Z,100146.78
2022-08-02T09:56:50.567Z,100147.88
2022-08-02T09:59:19.350Z,100141.28
2022-08-02T10:01:50.577Z,100135.72
2022-08-02T10:04:28.203Z,100138.72
2022-08-02T10:06:54.924Z,100132.78
2022-08-02T10:09:22.431Z,100134.97
2022-08-02T10:11:49.141Z,100131.56
2022-08-02T10:14:15.824Z,100123.75
2022-08-02T10:16:43.977Z,100132.00
2022-08-02T10:19:10.835Z,100123.28
2022-08-02T10:21:46.888Z,100125.53
2022-08-02T10:24:20.510Z,100121.72
2022-08-02T10:26:48.526Z,100119.31
2022-08-02T10:29:17.786Z,100119.91
2022-08-02T10:31:54.440Z,100112.91
2022-08-02T10:34:31.789Z,100114.34
2022-08-02T10:37:04.983Z,100104.41
2022-08-02T10:39:46.660Z,100104.53
2022-08-02T10:42:44.355Z,100109.06
2022-08-02T10:45:13.490Z,100107.06
2022-08-02T10:47:40.096Z,100106.53
2022-08-02T10:50:07.303Z,100108.19
2022-08-02T10:52:34.058Z,100104.19
2022-08-02T10:55:13.265Z,100103.50
2022-08-02T10:57:41.383Z,100100.66
2022-08-02T11:00:24.288Z,100101.03
2022-08-02T11:02:53.259Z,100091.88
2022-08-02T11:05:43.076Z,100100.63
2022-08-02T11:08:21.266Z,100096.53
2022-08-02T11:10:48.228Z,100101.31
2022-08-02T11:13:17.219Z,100099.28
2022-08-02T11:15:55.279Z,100090.97
2022-08-02T11:18:24.449Z,100095.19
2022-08-02T11:21:31.133Z,100087.31
2022-08-02T11:24:24.223Z,100078.25
2022-08-02T11:26:51.872Z,100075.72
2022-08-02T11:29:18.740Z,100076.06
2022-08-02T11:31:47.510Z,100078.59
2022-08-02T11:34:37.051Z,100069.63
2022-08-02T11:37:03.710Z,100070.94
2022-08-02T11:39:30.349Z,100070.38
2022-08-02T11:41:59.365Z,100069.97
2022-08-02T11:44:27.751Z,100078.94
2022-08-02T11:47:03.783Z,100066.41
2022-08-02T11:49:30.474Z,100068.09
2022-08-02T11:52:01.877Z,100072.78
2022-08-02T11:54:35.254Z,100073.88
2022-08-02T11:57:22.193Z,100081.69
2022-08-02T11:59:51.603Z,100074.88
2022-08-02T12:02:20.281Z,100064.34
2022-08-02T12:05:00.451Z,100063.59
2022-08-02T12:07:35.368Z,100070.91
2022-08-02T12:10:08.146Z,100069.38
2022-08-02T12:12:55.203Z,100066.31
2022-08-02T12:15:43.571Z,100055.09
2022-08-02T12:18:12.250Z,100061.47
2022-08-02T12:20:38.871Z,100056.75
2022-08-02T12:23:05.617Z,100056.16
2022-08-02T12:25:34.161Z,100055.13
2022-08-02T12:28:17.864Z,100059.72
2022-08-02T12:30:57.631Z,100047.66
2022-08-02T12:33:29.840Z,100054.13
2022-08-02T12:35:56.604Z,100045.81
2022-08-02T12:38:23.287Z,100046.00
2022-08-02T12:40:50.201Z,100048.19
2022-08-02T12:43:23.960Z,100048.56
2022-08-02T12:45:53.131Z,100050.72
2022-08-02T12:48:42.703Z,100044.22
2022-08-02T12:51:56.903Z,100047.69
2022-08-02T12:54:31.409Z,100049.25
2022-08-02T12:57:14.014Z,100046.44
2022-08-02T12:59:42.557Z,100039.66
2022-08-02T13:02:12.581Z,100042.91
2022-08-02T13:04:41.478Z,100036.84
2022-08-02T13:07:10.190Z,100043.94
2022-08-02T13:09:41.808Z,100043.38
2022-08-02T13:12:09.122Z,100039.84
2022-08-02T13:14:39.917Z,100043.59
2022-08-02T13:17:10.117Z,100038.81
2022-08-02T13:19:37.469Z,100037.13
2022-08-02T13:22:04.350Z,100039.56
2022-08-02T13:24:38.203Z,100035.78
2022-08-02T13:27:08.607Z,100034.03
2022-08-02T13:29:37.275Z,100030.84
2022-08-02T13:32:04.134Z,100032.38
2022-08-02T13:34:30.768Z,100027.25
2022-08-02T13:36:57.398Z,100023.00
2022-08-02T13:39:24.033Z,100021.22
2022-08-02T13:41:50.705Z,100021.28
2022-08-02T13:44:17.361Z,100029.44
2022-08-02T13:46:45.603Z,100015.94
2022-08-02T13:49:19.350Z,100019.94
2022-08-02T13:51:47.481Z,100017.97
2022-08-02T13:54:14.844Z,100017.44
2022-08-02T13:56:41.517Z,100020.38
2022-08-02T13:59:55.285Z,100011.84
2022-08-02T14:01:55.652Z,100012.97
2022-08-02T14:04:22.906Z,100014.06
2022-08-02T14:06:49.678Z,100016.78
2022-08-02T14:09:17.247Z,100010.16
2022-08-02T14:11:45.257Z,100012.00
2022-08-02T14:14:15.925Z,100001.59
2022-08-02T14:16:44.595Z,100012.56
2022-08-02T14:19:16.268Z,100020.47
2022-08-02T14:21:48.777Z,100012.69
2022-08-02T14:24:20.456Z,100006.25
2022-08-02T14:26:48.453Z,100004.91
2022-08-02T14:29:18.013Z,99998.53
2022-08-02T14:31:45.215Z,100008.59
2022-08-02T14:34:15.021Z,100000.47
2022-08-02T14:36:42.071Z,100002.72
2022-08-02T14:39:09.017Z,100001.59
2022-08-02T14:41:58.033Z,100004.66
2022-08-02T14:44:22.463Z,99995.28
2022-08-02T14:46:51.606Z,100011.34
2022-08-02T14:49:25.121Z,100001.91
2022-08-02T14:51:53.557Z,100001.84
2022-08-02T14:54:20.250Z,99997.63
2022-08-02T14:56:56.072Z,100006.19
2022-08-02T14:59:23.003Z,100007.31
2022-08-02T15:01:49.671Z,100011.13
2022-08-02T15:04:16.398Z,100005.91
2022-08-02T15:06:43.055Z,100005.47
2022-08-02T15:09:09.841Z,100007.84
2022-08-02T15:11:47.129Z,100009.66
2022-08-02T15:14:25.583Z,100005.56
2022-08-02T15:16:58.563Z,100004.59
2022-08-02T15:19:55.936Z,100017.03
2022-08-02T15:22:15.986Z,100007.56
2022-08-02T15:24:44.635Z,99999.66
2022-08-02T15:27:11.337Z,100001.41
2022-08-02T15:29:38.157Z,100007.19
2022-08-02T15:32:05.040Z,100005.09
2022-08-02T15:34:31.668Z,99996.50
2022-08-02T15:36:58.344Z,99991.56
2022-08-02T15:39:25.179Z,99989.38
2022-08-02T15:41:51.809Z,99991.84
2022-08-02T15:44:18.629Z,100000.28
2022-08-02T15:46:45.277Z,99995.09
2022-08-02T15:49:12.079Z,99992.91
2022-08-02T15:51:38.811Z,99995.81
2022-08-02T15:54:05.487Z,99999.28
2022-08-02T15:56:32.195Z,100002.19
2022-08-02T15:58:59.035Z,99999.91
2022-08-02T16:01:36.986Z,100012.88
2022-08-02T16:04:06.849Z,100010.69
2022-08-02T16:06:34.878Z,100009.28
2022-08-02T16:09:02.072Z,100008.25
2022-08-02T16:11:28.709Z,100007.72
2022-08-02T16:13:55.656Z,100003.03
2022-08-02T16:16:27.630Z,100011.47
2022-08-02T16:18:54.772Z,100005.22
2022-08-02T16:21:22.423Z,100005.88
2022-08-02T16:23:58.576Z,100016.84
2022-08-02T16:26:30.716Z,100016.50
2022-08-02T16:28:58.777Z,100011.47
2022-08-02T16:31:25.495Z,100019.75
2022-08-02T16:33:56.043Z,100012.88
2022-08-02T16:36:25.078Z,100016.22
2022-08-02T16:38:53.311Z,100013.22
2022-08-02T16:41:23.732Z,100021.25
2022-08-02T16:44:10.354Z,100016.75
2022-08-02T16:46:37.381Z,100014.31
2022-08-02T16:49:04.279Z,100023.81
2022-08-02T16:51:31.161Z,100016.19
2022-08-02T16:54:00.015Z,100019.38
2022-08-02T16:56:28.796Z,100022.94
2022-08-02T16:59:00.015Z,100014.44
2022-08-02T17:02:01.794Z,100015.13
2022-08-02T17:04:15.673Z,100019.09
2022-08-02T17:06:47.627Z,100022.81
2022-08-02T17:10:02.119Z,100029.75
2022-08-02T17:12:13.495Z,100022.16
2022-08-02T17:14:54.989Z,100024.34
2022-08-02T17:17:34.045Z,100029.91
2022-08-02T17:20:02.143Z,100031.47
2022-08-02T17:22:29.043Z,100038.06
2022-08-02T17:24:56.072Z,100032.75
2022-08-02T17:27:22.913Z,100035.41
2022-08-02T17:29:49.723Z,100037.50
2022-08-02T17:32:16.731Z,100045.66
2022-08-02T17:34:49.110Z,100036.03
2022-08-02T17:37:28.410Z,100039.84
2022-08-02T17:39:55.768Z,100045.94
2022-08-02T17:42:24.119Z,100043.91
2022-08-02T17:47:43.278Z,100043.59
2022-08-02T17:50:29.953Z,100051.13
2022-08-02T17:52:56.825Z,100050.25
2022-08-02T17:55:23.686Z,100057.78
2022-08-02T17:57:57.488Z,100053.22
2022-08-02T18:00:33.647Z,100055.28
2022-08-02T18:03:01.735Z,100062.44
2022-08-02T18:05:39.374Z,100065.09
2022-08-02T18:08:18.335Z,100071.91
2022-08-02T18:10:47.895Z,100072.50
2022-08-02T18:13:14.832Z,100075.09
2022-08-02T18:15:41.603Z,100075.94
2022-08-02T18:18:13.180Z,100086.16
2022-08-02T18:20:41.131Z,100083.44
2022-08-02T18:23:13.636Z,100088.41
2022-08-02T18:25:45.956Z,100094.38
2022-08-02T18:28:28.084Z,100086.59
2022-08-02T18:30:54.716Z,100099.00
2022-08-02T18:33:58.192Z,100092.53
2022-08-02T18:36:10.215Z,100102.84
2022-08-02T18:38:51.580Z,100106.31
2022-08-02T18:41:19.138Z,100107.59
2022-08-02T18:43:48.784Z,100102.09
2022-08-02T18:46:17.218Z,100102.97
2022-08-02T18:48:47.829Z,100108.09
2022-08-02T18:51:18.785Z,100107.94
2022-08-02T18:54:04.199Z,100119.72
2022-08-02T18:56:32.709Z,100112.91
2022-08-02T18:58:59.611Z,100113.19
2022-08-02T19:01:33.673Z,100104.56
2022-08-02T19:04:03.872Z,100111.75
2022-08-02T19:06:30.654Z,100111.44
2022-08-02T19:09:05.497Z,100115.44
2022-08-02T19:11:37.174Z,100118.25
2022-08-02T19:14:03.988Z,100121.97
2022-08-02T19:16:36.793Z,100115.00
2022-08-02T19:19:07.909Z,100113.72
2022-08-02T19:22:16.549Z,100116.81
2022-08-02T19:24:21.865Z,100119.31
2022-08-02T19:26:51.967Z,100126.47
2022-08-02T19:29:42.074Z,100137.81
2022-08-02T19:32:42.790Z,100129.16
2022-08-02T19:34:56.303Z,100123.38
2022-08-02T19:37:23.001Z,100122.28
2022-08-02T19:39:50.454Z,100125.91
2022-08-02T19:42:18.718Z,100129.16
2022-08-02T19:44:46.541Z,100132.28
2022-08-02T19:47:19.161Z,100128.75
2022-08-02T19:49:48.925Z,100129.91
2022-08-02T19:52:21.883Z,100133.47
2022-08-02T19:54:55.562Z,100132.38
2022-08-02T19:57:24.954Z,100128.84
2022-08-02T19:59:53.854Z,100132.06
2022-08-02T20:02:21.358Z,100130.72
2022-08-02T20:04:50.470Z,100131.66
2022-08-02T20:07:54.479Z,100134.66
2022-08-02T20:10:11.285Z,100130.13
2022-08-02T20:12:41.710Z,100133.53
2022-08-02T20:15:15.413Z,100136.84
2022-08-02T20:17:46.446Z,100134.22
2022-08-02T20:20:15.281Z,100154.34
2022-08-02T20:22:41.918Z,100151.72
2022-08-02T20:25:10.321Z,100140.81
2022-08-02T20:27:51.075Z,100144.91
2022-08-02T20:30:18.435Z,100139.16
2022-08-02T20:32:52.588Z,100141.31
2022-08-02T20:35:19.922Z,100148.00
2022-08-02T20:40:34.743Z,100152.59
2022-08-02T20:43:01.801Z,100145.41
2022-08-02T20:45:29.198Z,100150.16
2022-08-02T20:48:00.380Z,100144.38
2022-08-02T20:50:30.288Z,100143.41
2022-08-02T20:52:59.272Z,100135.88
2022-08-02T20:55:26.196Z,100144.59
2022-08-02T20:58:00.467Z,100146.50
2022-08-02T21:00:27.998Z,100146.53
2022-08-02T21:02:54.646Z,100151.16
2022-08-02T21:05:26.921Z,100145.06
2022-08-02T21:08:09.555Z,100147.06
2022-08-02T21:10:41.693Z,100143.66
2022-08-02T21:13:18.990Z,100139.78
2022-08-02T21:15:50.007Z,100141.63
2022-08-02T21:18:21.465Z,100144.88
2022-08-02T21:20:53.174Z,100146.56
2022-08-02T21:23:20.234Z,100141.19
2022-08-02T21:25:57.117Z,100145.63
2022-08-02T21:28:24.899Z,100151.25
2022-08-02T21:31:12.258Z,100148.34
2022-08-02T21:33:56.723Z,100154.09
2022-08-02T21:36:31.812Z,100148.34
2022-08-02T21:39:05.456Z,100156.91
2022-08-02T21:44:22.054Z,100149.72
2022-08-02T21:46:53.983Z,100149.72
2022-08-02T21:49:40.511Z,100150.56
2022-08-02T21:52:12.438Z,100148.47
2022-08-02T21:54:39.629Z,100151.81
2022-08-02T21:57:06.931Z,100152.06
2022-08-02T21:59:33.778Z,100147.44
2022-08-02T22:02:01.381Z,100144.88
2022-08-02T22:04:28.101Z,100142.91
2022-08-02T22:06:55.650Z,100146.81
2022-08-02T22:09:42.306Z,100146.59
2022-08-02T22:12:16.965Z,100151.97
2022-08-02T22:14:49.476Z,100151.09
2022-08-02T22:17:50.421Z,100149.03
2022-08-02T22:20:09.238Z,100153.66
2022-08-02T22:22:39.041Z,100152.09
2022-08-02T22:25:06.199Z,100157.44
2022-08-02T22:28:34.920Z,100164.78
2022-08-02T22:30:35.209Z,100163.31
2022-08-02T22:33:02.056Z,100159.88
2022-08-02T22:35:41.832Z,100162.41
2022-08-02T22:38:16.904Z,100157.16
2022-08-02T22:40:45.831Z,100155.56
2022-08-02T22:43:22.617Z,100158.75
2022-08-02T22:45:50.118Z,100161.69
2022-08-02T22:58:49.366Z,100039.88
2022-08-02T22:59:03.343Z,100147.25
2022-08-02T22:59:07.384Z,100147.53
